Terminal Aerodrome Forecast
Issued by NWS Quad Cities IA IL

Home | Current Version | Previous Version | Text Only | Print | Product List | Glossary On
Versions: 1 2 3 4 5 6 7 8 9 10 11 12 13 14 15 16 17 18 19 20 21 22 23 24 25 26
000
FTUS43 KDVN 261733
TAFMLI
TAF
KMLI 261733Z 2618/2718 23015G23KT P6SM BKN100
     FM270000 VRB03KT P6SM BKN050
     FM270800 VRB02KT 4SM BR BKN035
     FM271500 17006KT P6SM SCT040=

USA.gov is the U.S. government's official web portal to all federal, state and local government web resources and services.